Guerrier, Washington
Current Conditions -  °F | °C
As of 3:55 PM on Wednesday 22 Oct 2014 (Local Time) from KCLS Reporting Station
Light Rain Light Rain  
Wind Chill: 57°   Ceiling: Unl
Heat Index: 57°   Visibility: 10mi
Dew Point: 55°   Wind: 12mph
Humidity: 94%   Direction: 160°SSE
Pressure: 29.63"   Gusts: 18mph
Location:  46.6561°N, 122.993°W
Report Text: KCLS 222255Z AUTO 16010G16KT 10SM -RA FEW011 FEW044 SCT075 14/13 A2963 RMK AO2
Loading
Personal Weather Stations






























Interactive Weather Map
Tropical Storm Tracking
New forecast layout! Learn more

10-Day Weather Forecast

Advertisements
Track Severe Weather on mobile